12TA weather

Public forecast

Using degrees Fahrenheit for public forecast. Weather courtesy of forecast.io.

Closest aviation weather report (METAR) to Channel Two Heliport

Closest report is Sugar Land Regional Airport, 7.9 nm (14.6 km) WSW. Retrieved 2020/08/12 10:57 UTC (37 minutes ago):

KSGR 121057Z 19004KT 10SM BKN020 26/24 A2996 RMK AO2 T02610244

Closest aviation forecast (TAF) to Channel Two Heliport

Closest forecast is Sugar Land Regional Airport, 7.9 nm (14.6 km) WSW. Retrieved 2020/08/12 06:22 UTC (5 hours ago):

TAF KSGR 120520Z 1206/1306 18007KT P6SM SKC FM121200 VRB03KT P6SM SCT025 FM121500 20008KT P6SM SCT040 FM122000 17011KT P6SM SCT250 FM130300 18008KT P6SM SCT025